createdAt,value
2022-10-19T00:00:35.859Z,13.40
2022-10-19T00:05:38.654Z,13.30
2022-10-19T00:10:41.836Z,13.30
2022-10-19T00:15:45.618Z,13.30
2022-10-19T00:20:48.448Z,13.20
2022-10-19T00:25:57.877Z,13.20
2022-10-19T00:31:05.729Z,13.10
2022-10-19T00:36:18.402Z,13.10
2022-10-19T00:41:22.457Z,13.00
2022-10-19T00:46:26.846Z,13.00
2022-10-19T00:51:31.490Z,12.90
2022-10-19T00:56:35.238Z,12.90
2022-10-19T01:01:37.966Z,12.80
2022-10-19T01:06:41.911Z,12.70
2022-10-19T01:11:58.256Z,12.70
2022-10-19T01:17:07.848Z,12.70
2022-10-19T01:22:43.931Z,12.60
2022-10-19T01:28:04.822Z,12.60
2022-10-19T01:33:36.216Z,12.50
2022-10-19T01:38:52.021Z,12.50
2022-10-19T01:44:01.053Z,12.50
2022-10-19T01:49:16.462Z,12.50
2022-10-19T01:54:21.160Z,12.40
2022-10-19T01:59:24.262Z,12.40
2022-10-19T02:04:27.383Z,12.50
2022-10-19T02:09:30.425Z,12.50
2022-10-19T02:14:39.878Z,12.60
2022-10-19T02:19:43.632Z,12.60
2022-10-19T02:24:46.328Z,12.50
2022-10-19T02:29:49.038Z,12.60
2022-10-19T02:34:51.822Z,12.60
2022-10-19T02:39:54.581Z,12.60
2022-10-19T02:45:02.039Z,12.40
2022-10-19T02:50:09.302Z,12.40
2022-10-19T02:55:12.041Z,12.40
2022-10-19T03:00:15.123Z,12.40
2022-10-19T03:05:18.112Z,12.40
2022-10-19T03:10:21.089Z,12.40
2022-10-19T03:15:27.369Z,12.40
2022-10-19T03:20:30.088Z,12.50
2022-10-19T03:25:32.848Z,12.60
2022-10-19T03:30:35.551Z,12.50
2022-10-19T03:35:38.254Z,12.50
2022-10-19T03:40:41.290Z,12.50
2022-10-19T03:45:47.193Z,12.50
2022-10-19T03:50:58.162Z,12.50
2022-10-19T03:56:06.459Z,12.50
2022-10-19T04:01:19.593Z,12.50
2022-10-19T04:06:26.287Z,12.40
2022-10-19T04:11:31.131Z,12.30
2022-10-19T04:16:34.285Z,12.40
2022-10-19T04:21:38.699Z,12.50
2022-10-19T04:26:44.409Z,12.40
2022-10-19T04:31:49.855Z,12.50
2022-10-19T04:36:53.773Z,12.50
2022-10-19T04:41:56.539Z,12.40
2022-10-19T04:46:59.279Z,12.40
2022-10-19T04:52:01.971Z,12.40
2022-10-19T04:57:04.938Z,12.40
2022-10-19T05:02:07.859Z,12.40
2022-10-19T05:07:10.581Z,12.40
2022-10-19T05:12:13.298Z,12.40
2022-10-19T05:17:16.274Z,12.40
2022-10-19T05:22:19.402Z,12.40
2022-10-19T05:27:22.634Z,12.40
2022-10-19T05:32:25.719Z,12.40
2022-10-19T05:37:28.513Z,12.40
2022-10-19T05:42:31.304Z,12.30
2022-10-19T05:47:35.517Z,12.20
2022-10-19T05:52:38.953Z,12.10
2022-10-19T05:57:41.816Z,12.00
2022-10-19T06:02:45.002Z,12.00
2022-10-19T06:07:47.773Z,12.10
2022-10-19T06:12:50.583Z,12.00
2022-10-19T06:17:53.663Z,12.10
2022-10-19T06:22:56.482Z,12.00
2022-10-19T06:28:00.112Z,11.90
2022-10-19T06:38:06.480Z,11.80
2022-10-19T06:43:09.443Z,12.10
2022-10-19T06:48:12.159Z,12.10
2022-10-19T06:53:15.011Z,12.30
2022-10-19T06:58:17.842Z,12.30
2022-10-19T07:03:20.709Z,12.20
2022-10-19T07:08:25.035Z,12.50
2022-10-19T07:13:29.450Z,12.70
2022-10-19T07:18:33.242Z,12.80
2022-10-19T07:23:37.774Z,12.70
2022-10-19T07:28:42.430Z,13.00
2022-10-19T07:33:45.596Z,12.80
2022-10-19T07:38:48.614Z,12.70
2022-10-19T07:43:52.253Z,12.70
2022-10-19T07:48:55.466Z,12.60
2022-10-19T07:53:59.297Z,12.50
2022-10-19T07:59:03.121Z,12.50
2022-10-19T08:14:53.445Z,12.40
2022-10-19T08:19:56.336Z,12.40
2022-10-19T08:24:59.138Z,12.60
2022-10-19T08:30:02.182Z,12.90
2022-10-19T08:35:09.931Z,12.80
2022-10-19T08:40:21.313Z,13.00
2022-10-19T08:45:38.728Z,13.20
2022-10-19T08:50:45.009Z,13.30
2022-10-19T08:56:38.818Z,12.90
2022-10-19T09:01:49.889Z,12.90
2022-10-19T09:07:10.879Z,12.80
2022-10-19T09:12:16.987Z,12.70
2022-10-19T09:17:20.911Z,12.60
2022-10-19T09:22:32.859Z,12.50
2022-10-19T09:27:40.221Z,12.50
2022-10-19T09:32:43.448Z,12.40
2022-10-19T09:37:49.370Z,12.40
2022-10-19T09:42:57.391Z,12.40
2022-10-19T09:48:08.640Z,12.40
2022-10-19T09:53:21.047Z,12.40
2022-10-19T09:58:29.201Z,12.70
2022-10-19T10:03:40.737Z,14.60
2022-10-19T10:08:58.113Z,15.00
2022-10-19T10:14:26.218Z,15.20
2022-10-19T10:19:32.079Z,15.90
2022-10-19T10:24:35.122Z,13.80
2022-10-19T10:29:39.664Z,13.30
2022-10-19T10:35:01.971Z,13.00
2022-10-19T10:40:06.899Z,13.00
2022-10-19T10:45:38.430Z,12.90
2022-10-19T10:50:41.318Z,12.80
2022-10-19T10:55:56.412Z,12.90
2022-10-19T11:01:06.562Z,13.40
2022-10-19T11:06:11.993Z,14.00
2022-10-19T11:11:15.382Z,13.60
2022-10-19T11:16:31.749Z,14.50
2022-10-19T11:21:58.098Z,14.90
2022-10-19T11:27:18.325Z,14.20
2022-10-19T11:32:32.390Z,14.00
2022-10-19T11:38:18.903Z,13.70
2022-10-19T11:43:30.890Z,13.30
2022-10-19T11:48:57.913Z,13.30
2022-10-19T11:54:00.718Z,13.10
2022-10-19T11:59:33.278Z,13.20
2022-10-19T12:04:54.902Z,13.20
2022-10-19T12:10:18.213Z,13.20
2022-10-19T12:15:35.395Z,13.10
2022-10-19T12:20:48.476Z,13.30
2022-10-19T12:25:52.413Z,13.40
2022-10-19T12:30:57.048Z,13.10
2022-10-19T12:36:37.154Z,12.80
2022-10-19T12:41:52.766Z,12.80
2022-10-19T12:47:01.551Z,12.60
2022-10-19T12:52:05.535Z,12.40
2022-10-19T12:57:40.715Z,12.30
2022-10-19T13:02:44.237Z,12.20
2022-10-19T13:12:55.170Z,12.00
2022-10-19T13:17:57.977Z,12.20
2022-10-19T13:23:00.758Z,12.20
2022-10-19T13:28:18.179Z,12.20
2022-10-19T13:33:30.109Z,12.10
2022-10-19T13:38:39.800Z,12.00
2022-10-19T13:44:17.331Z,12.00
2022-10-19T13:49:51.133Z,12.00
2022-10-19T13:55:31.844Z,12.00
2022-10-19T14:00:58.407Z,12.00
2022-10-19T14:06:05.676Z,12.10
2022-10-19T14:11:19.434Z,12.10
2022-10-19T14:16:22.989Z,12.00
2022-10-19T14:21:34.296Z,12.00
2022-10-19T14:26:37.084Z,11.90
2022-10-19T14:31:40.332Z,11.90
2022-10-19T14:36:49.030Z,11.80
2022-10-19T14:41:55.641Z,11.80
2022-10-19T14:47:02.252Z,11.70
2022-10-19T14:52:05.366Z,11.70
2022-10-19T14:57:35.205Z,11.70
2022-10-19T15:02:45.493Z,11.60
2022-10-19T15:07:49.143Z,11.60
2022-10-19T15:12:57.936Z,11.60
2022-10-19T15:18:00.861Z,11.50
2022-10-19T15:23:32.938Z,11.50
2022-10-19T15:28:41.392Z,11.40
2022-10-19T15:33:51.469Z,11.40
2022-10-19T15:39:18.097Z,11.10
2022-10-19T15:44:42.414Z,10.90
2022-10-19T15:49:46.004Z,10.90
2022-10-19T15:54:50.373Z,10.80
2022-10-19T15:59:54.399Z,10.70
2022-10-19T16:04:57.279Z,10.70
2022-10-19T16:10:00.488Z,10.70
2022-10-19T16:15:03.592Z,10.80
2022-10-19T16:20:07.390Z,10.70
2022-10-19T16:25:11.029Z,10.60
2022-10-19T16:30:14.523Z,10.50
2022-10-19T16:35:17.388Z,10.50
2022-10-19T16:40:20.560Z,10.60
2022-10-19T16:45:23.245Z,10.60
2022-10-19T16:50:26.011Z,10.60
2022-10-19T16:55:29.531Z,10.60
2022-10-19T17:00:32.799Z,10.70
2022-10-19T17:05:39.048Z,10.70
2022-10-19T17:10:41.838Z,10.70
2022-10-19T17:15:44.789Z,10.80
2022-10-19T17:20:47.619Z,10.80
2022-10-19T17:25:50.686Z,10.70
2022-10-19T17:30:54.018Z,10.70
2022-10-19T17:36:02.440Z,10.70
2022-10-19T17:41:11.531Z,10.70
2022-10-19T17:46:17.338Z,10.70
2022-10-19T17:51:24.232Z,10.60
2022-10-19T17:56:27.968Z,10.60
2022-10-19T18:01:31.252Z,10.50
2022-10-19T18:06:36.540Z,10.50
2022-10-19T18:11:45.386Z,10.40
2022-10-19T18:16:48.293Z,10.20
2022-10-19T18:21:51.043Z,10.10
2022-10-19T18:26:54.323Z,10.00
2022-10-19T18:31:57.129Z,10.00
2022-10-19T18:37:00.130Z,9.90
2022-10-19T18:42:02.975Z,10.00
2022-10-19T18:47:05.873Z,9.90
2022-10-19T18:52:08.696Z,9.80
2022-10-19T18:57:11.737Z,9.70
2022-10-19T19:02:22.236Z,9.80
2022-10-19T19:07:25.728Z,9.80
2022-10-19T19:12:28.604Z,9.80
2022-10-19T19:17:31.382Z,9.80
2022-10-19T19:22:34.544Z,9.70
2022-10-19T19:32:41.560Z,9.30
2022-10-19T19:37:44.597Z,9.10
2022-10-19T19:42:47.367Z,9.00
2022-10-19T19:47:50.193Z,8.80
2022-10-19T19:52:53.342Z,8.70
2022-10-19T19:57:56.378Z,8.40
2022-10-19T20:02:59.912Z,8.10
2022-10-19T20:08:02.943Z,7.90
2022-10-19T20:13:06.027Z,7.70
2022-10-19T20:18:08.852Z,7.60
2022-10-19T20:23:11.611Z,7.20
2022-10-19T20:28:14.542Z,7.00
2022-10-19T20:33:17.352Z,7.00
2022-10-19T20:38:20.183Z,6.80
2022-10-19T20:43:23.469Z,6.80
2022-10-19T20:48:26.303Z,6.60
2022-10-19T20:53:29.283Z,6.50
2022-10-19T20:58:32.244Z,6.30
2022-10-19T21:03:35.463Z,6.30
2022-10-19T21:08:38.388Z,6.20
2022-10-19T21:13:41.503Z,6.10
2022-10-19T21:18:46.422Z,6.10
2022-10-19T21:23:51.814Z,6.00
2022-10-19T21:28:55.181Z,5.80
2022-10-19T21:33:58.191Z,5.90
2022-10-19T21:39:01.342Z,5.80
2022-10-19T21:44:04.283Z,5.80
2022-10-19T21:49:07.043Z,5.80
2022-10-19T21:54:13.915Z,6.00
2022-10-19T21:59:17.466Z,6.30
2022-10-19T22:04:20.303Z,6.40
2022-10-19T22:09:23.571Z,6.60
2022-10-19T22:14:27.626Z,6.50
2022-10-19T22:19:30.713Z,6.40
2022-10-19T22:24:35.036Z,6.40
2022-10-19T22:29:37.899Z,6.40
2022-10-19T22:34:40.816Z,6.40
2022-10-19T22:39:43.617Z,6.40
2022-10-19T22:44:46.382Z,6.40
2022-10-19T22:49:49.296Z,6.50
2022-10-19T22:54:52.051Z,6.50
2022-10-19T22:59:54.775Z,6.60
2022-10-19T23:04:57.514Z,6.40
2022-10-19T23:10:00.217Z,6.20
2022-10-19T23:15:02.887Z,6.10
2022-10-19T23:20:06.228Z,6.00
2022-10-19T23:25:09.686Z,5.80
2022-10-19T23:30:12.406Z,5.70
2022-10-19T23:35:15.109Z,5.50
2022-10-19T23:40:17.767Z,5.60
2022-10-19T23:45:20.497Z,5.70
2022-10-19T23:50:23.229Z,5.70
2022-10-19T23:55:25.906Z,5.80
